Terminal Aerodrome Forecast
Issued by NWS

Home | Current Version | Previous Version | Text Only | Print | Product List | Glossary On
Versions: 1 2 3 4 5 6 7 8 9 10 11 12 13 14 15 16 17
000
FTUS43 KMQT 271100
TAFCMX
TAF
KCMX 271126Z 2712/2812 03005KT 2SM -SHSN OVC025
     FM271300 02010KT 1SM -SN OVC008
     FM272000 31012KT 3SM -SN OVC015
     FM280000 28012KT P6SM -SN OVC025
     FM280600 28013G23KT 2SM -SHSN BLSN OVC015=

USA.gov is the U.S. government's official web portal to all federal, state and local government web resources and services.